Time;durP1;ratioP1;P1;durP2;ratioP2;P2;SDS_P1;SDS_P2;PMS_P1;PMS_P2;Temp;Humidity;BMP_temperature;BMP_pressure;BME280_temperature;BME280_humidity;BME280_pressure;Samples;Min_cycle;Max_cycle;Signal;HPM_P1;HPM_P2
2022/03/18 00:00:24;;;;;;;0.00;0.00;;;7.90;97.30;;;;;;5125980;28;20024;-73
2022/03/18 00:02:53;;;;;;;0.00;0.00;;;7.90;97.80;;;;;;5124349;28;20031;-72
2022/03/18 00:05:19;;;;;;;;;;;7.80;97.80;;;;;;5126496;28;20016;-73
2022/03/18 00:07:46;;;;;;;0.00;0.00;;;7.80;98.10;;;;;;5125162;28;19966;-71
2022/03/18 00:10:13;;;;;;;0.00;0.00;;;7.80;98.20;;;;;;5126060;28;20327;-71
2022/03/18 00:12:39;;;;;;;0.00;0.00;;;7.70;98.20;;;;;;5125289;28;20015;-69
2022/03/18 00:15:07;;;;;;;0.00;0.00;;;7.70;98.60;;;;;;5107322;28;20045;-70
2022/03/18 00:17:33;;;;;;;0.00;0.00;;;7.70;98.30;;;;;;5107077;28;20030;-71
2022/03/18 00:19:59;;;;;;;0.00;0.00;;;7.70;98.60;;;;;;5107075;28;20023;-70
2022/03/18 00:22:24;;;;;;;0.00;0.00;;;7.70;98.90;;;;;;5125603;28;20280;-70
2022/03/18 00:24:50;;;;;;;0.00;0.00;;;7.60;98.90;;;;;;5124616;28;20076;-70
2022/03/18 00:27:16;;;;;;;0.00;0.00;;;7.60;99.10;;;;;;5125561;28;20069;-70
2022/03/18 00:29:42;;;;;;;0.00;0.00;;;7.50;99.20;;;;;;5125080;28;20038;-70
2022/03/18 00:32:08;;;;;;;0.00;0.00;;;7.50;99.60;;;;;;5125528;28;20019;-71
2022/03/18 00:34:34;;;;;;;0.00;0.00;;;7.40;99.80;;;;;;5125094;28;20069;-71
2022/03/18 00:37:00;;;;;;;0.00;0.00;;;7.40;99.80;;;;;;5124781;28;20094;-70
2022/03/18 00:39:25;;;;;;;0.00;0.00;;;7.30;99.90;;;;;;5105131;28;20142;-71
2022/03/18 00:41:51;;;;;;;0.00;0.00;;;7.30;99.90;;;;;;5102988;28;20112;-69
2022/03/18 00:44:17;;;;;;;0.00;0.00;;;7.20;99.90;;;;;;5104690;28;20024;-70
2022/03/18 00:46:43;;;;;;;0.00;0.00;;;7.20;99.90;;;;;;5102880;28;20016;-69
2022/03/18 00:52:05;;;;;;;0.00;0.00;;;7.00;99.90;;;;;;5124240;28;20026;-70
2022/03/18 00:54:36;;;;;;;0.00;0.00;;;7.00;99.90;;;;;;5125048;28;20043;-71
2022/03/18 00:57:03;;;;;;;0.00;0.00;;;7.00;99.90;;;;;;5122731;28;20084;-71
2022/03/18 00:59:29;;;;;;;0.00;0.00;;;6.90;99.90;;;;;;5105385;28;20037;-71
2022/03/18 01:01:58;;;;;;;0.00;0.00;;;6.90;99.90;;;;;;5124078;28;20015;-70
2022/03/18 01:04:25;;;;;;;0.00;0.00;;;6.90;99.90;;;;;;5122315;28;20019;-72
2022/03/18 01:06:54;;;;;;;0.00;0.00;;;6.80;99.90;;;;;;5123663;28;20019;-70
2022/03/18 01:09:21;;;;;;;0.00;0.00;;;6.90;99.90;;;;;;5124139;28;20023;-71
2022/03/18 01:11:50;;;;;;;0.05;0.05;;;6.80;99.90;;;;;;5105023;28;20015;-69
2022/03/18 01:14:16;;;;;;;0.00;0.00;;;6.80;99.90;;;;;;5124455;28;20019;-73
2022/03/18 01:16:42;;;;;;;0.00;0.00;;;6.80;99.90;;;;;;5123759;28;20019;-68
2022/03/18 01:19:08;;;;;;;0.00;0.00;;;6.80;99.90;;;;;;5123824;28;20019;-71
2022/03/18 01:21:35;;;;;;;0.00;0.00;;;6.70;99.90;;;;;;5105848;28;20023;-70
2022/03/18 01:24:01;;;;;;;0.00;0.00;;;6.80;99.90;;;;;;5105224;28;20278;-70
2022/03/18 01:26:27;;;;;;;0.00;0.00;;;6.70;99.90;;;;;;5105374;28;20022;-69
2022/03/18 01:28:53;;;;;;;0.00;0.00;;;6.60;99.90;;;;;;5123174;28;20015;-70
2022/03/18 01:31:19;;;;;;;0.00;0.00;;;6.60;99.90;;;;;;5124094;28;20015;-70
2022/03/18 01:33:45;;;;;;;0.00;0.00;;;6.60;99.90;;;;;;5123618;28;20012;-69
2022/03/18 01:36:11;;;;;;;0.00;0.00;;;6.50;99.90;;;;;;5123763;28;20329;-71
2022/03/18 01:38:37;;;;;;;0.00;0.00;;;6.50;99.90;;;;;;5106465;28;20035;-69
2022/03/18 01:41:03;;;;;;;0.00;0.00;;;6.40;99.90;;;;;;5104942;28;20087;-69
2022/03/18 01:43:42;;;;;;;0.00;0.00;;;6.40;99.90;;;;;;5105481;28;20298;-69
2022/03/18 01:46:09;;;;;;;0.00;0.00;;;6.40;99.90;;;;;;5123304;28;20083;-68
2022/03/18 01:48:35;;;;;;;0.00;0.00;;;6.40;99.90;;;;;;5106537;28;20048;-68
2022/03/18 01:51:03;;;;;;;0.00;0.00;;;6.30;99.90;;;;;;5122812;28;20026;-69
2022/03/18 01:53:28;;;;;;;0.00;0.00;;;6.30;99.90;;;;;;5123251;28;20212;-68
2022/03/18 01:55:55;;;;;;;0.00;0.00;;;6.20;99.90;;;;;;5122255;28;20123;-68
2022/03/18 01:58:22;;;;;;;0.00;0.00;;;6.20;99.90;;;;;;5109902;28;20038;-69
2022/03/18 02:00:48;;;;;;;0.00;0.00;;;6.20;99.90;;;;;;5122944;28;20015;-68
2022/03/18 02:03:14;;;;;;;0.00;0.00;;;6.10;99.90;;;;;;5122562;28;20042;-69
2022/03/18 02:05:40;;;;;;;0.00;0.00;;;6.10;99.90;;;;;;5122328;28;20090;-70
2022/03/18 02:08:08;;;;;;;0.00;0.00;;;6.00;99.90;;;;;;5118816;28;20038;-69
2022/03/18 02:10:34;;;;;;;0.00;0.00;;;6.00;99.90;;;;;;5123342;28;20013;-70
2022/03/18 02:13:00;;;;;;;0.00;0.00;;;6.00;99.90;;;;;;5122805;28;20049;-68
2022/03/18 02:15:26;;;;;;;0.17;0.17;;;6.00;99.90;;;;;;5123109;28;20030;-67
2022/03/18 02:17:52;;;;;;;0.00;0.00;;;5.90;99.90;;;;;;5122136;28;20031;-70
2022/03/18 02:20:19;;;;;;;0.00;0.00;;;5.90;99.90;;;;;;5123359;28;20019;-69
2022/03/18 02:22:45;;;;;;;0.00;0.00;;;5.90;99.90;;;;;;5105234;28;20024;-70
2022/03/18 02:25:30;;;;;;;0.10;0.10;;;5.80;99.90;;;;;;5122665;28;20019;-70
2022/03/18 02:28:02;;;;;;;0.00;0.00;;;5.80;99.90;;;;;;5104329;28;20026;-69
2022/03/18 02:30:30;;;;;;;0.00;0.00;;;5.70;99.90;;;;;;5122925;28;20086;-70
2022/03/18 02:32:56;;;;;;;0.00;0.00;;;5.70;99.90;;;;;;5104680;28;20024;-70
2022/03/18 02:35:22;;;;;;;0.00;0.00;;;5.70;99.90;;;;;;5123008;28;20218;-70
2022/03/18 02:37:48;;;;;;;0.00;0.00;;;5.70;99.90;;;;;;5122429;28;20035;-71
2022/03/18 02:40:17;;;;;;;0.00;0.00;;;5.70;99.90;;;;;;5123053;28;20020;-71
2022/03/18 02:42:44;;;;;;;0.00;0.00;;;5.70;99.90;;;;;;5121684;28;20099;-70
2022/03/18 02:45:10;;;;;;;0.00;0.00;;;5.60;99.90;;;;;;5121229;28;20394;-72
2022/03/18 02:47:37;;;;;;;0.00;0.00;;;5.60;99.90;;;;;;5121709;28;20038;-70
2022/03/18 02:50:04;;;;;;;0.00;0.00;;;5.70;99.90;;;;;;5083513;28;20023;-71
2022/03/18 02:52:29;;;;;;;0.00;0.00;;;5.60;99.90;;;;;;5102161;28;20024;-69
2022/03/18 02:54:55;;;;;;;0.00;0.00;;;5.60;99.90;;;;;;5101222;28;20116;-70
2022/03/18 02:57:21;;;;;;;0.00;0.00;;;5.60;99.90;;;;;;5102356;28;20226;-70
2022/03/18 02:59:46;;;;;;;0.00;0.00;;;5.60;99.90;;;;;;5120317;28;20027;-71
2022/03/18 03:02:12;;;;;;;0.00;0.00;;;5.50;99.90;;;;;;5122080;28;20181;-70
2022/03/18 03:07:58;;;;;;;0.00;0.00;;;5.50;99.90;;;;;;5104084;28;20038;-71
2022/03/18 03:10:09;;;;;;;0.00;0.00;;;5.50;99.90;;;;;;5101461;28;20034;-69
2022/03/18 03:12:34;;;;;;;0.00;0.00;;;5.50;99.90;;;;;;5091476;28;20090;-70
2022/03/18 03:15:00;;;;;;;0.00;0.00;;;5.50;99.90;;;;;;5102949;28;20306;-71
2022/03/18 03:17:26;;;;;;;0.00;0.00;;;5.50;99.90;;;;;;5121683;28;20038;-70
2022/03/18 03:19:53;;;;;;;0.00;0.00;;;5.50;99.90;;;;;;5103955;28;20377;-69
2022/03/18 03:22:18;;;;;;;0.00;0.00;;;5.50;99.90;;;;;;5094423;28;20015;-69
2022/03/18 03:24:44;;;;;;;0.00;0.00;;;5.50;99.90;;;;;;5105301;28;20091;-70
2022/03/18 03:27:10;;;;;;;0.00;0.00;;;5.50;99.90;;;;;;5091599;28;20020;-70
2022/03/18 03:29:35;;;;;;;0.00;0.00;;;5.50;99.90;;;;;;5108104;28;20035;-70
2022/03/18 03:32:01;;;;;;;0.00;0.00;;;5.50;99.90;;;;;;5105938;28;20101;-70
2022/03/18 03:34:29;;;;;;;0.00;0.00;;;5.50;99.90;;;;;;5112476;28;20028;-70
2022/03/18 03:36:55;;;;;;;0.00;0.00;;;5.50;99.90;;;;;;5096643;28;20035;-70
2022/03/18 03:39:21;;;;;;;0.00;0.00;;;5.40;99.90;;;;;;5110009;28;20024;-69
2022/03/18 03:41:46;;;;;;;0.00;0.00;;;5.50;99.90;;;;;;5097378;28;20231;-70
2022/03/18 03:44:12;;;;;;;0.00;0.00;;;5.40;99.90;;;;;;5094070;28;20216;-70
2022/03/18 03:46:38;;;;;;;0.00;0.00;;;5.50;99.90;;;;;;5091912;28;20088;-70
2022/03/18 03:49:03;;;;;;;0.00;0.00;;;5.40;99.90;;;;;;5096424;28;20277;-68
2022/03/18 03:51:29;;;;;;;0.00;0.00;;;5.50;99.90;;;;;;5095771;28;20036;-69
2022/03/18 03:53:55;;;;;;;0.00;0.00;;;5.50;99.90;;;;;;5077536;28;20085;-69
2022/03/18 03:56:21;;;;;;;0.00;0.00;;;5.50;99.90;;;;;;5097290;28;20332;-69
2022/03/18 03:58:47;;;;;;;0.00;0.00;;;5.50;99.90;;;;;;5092121;28;20138;-68
2022/03/18 04:01:13;;;;;;;0.00;0.00;;;5.50;99.90;;;;;;5076916;28;20028;-69
2022/03/18 04:03:39;;;;;;;0.00;0.00;;;5.50;99.90;;;;;;5096933;28;20054;-69
2022/03/18 04:06:04;;;;;;;0.00;0.00;;;5.60;99.90;;;;;;5094705;28;20032;-69
2022/03/18 04:08:30;;;;;;;0.00;0.00;;;5.50;99.90;;;;;;5106440;28;20069;-71
2022/03/18 04:10:56;;;;;;;2.15;2.00;;;5.60;99.90;;;;;;5121187;28;20134;-69
2022/03/18 04:13:22;;;;;;;0.00;0.00;;;5.50;99.90;;;;;;5122040;28;20286;-70
2022/03/18 04:15:48;;;;;;;0.00;0.00;;;5.50;99.90;;;;;;5103286;28;20020;-70
2022/03/18 04:18:14;;;;;;;0.00;0.00;;;5.50;99.90;;;;;;5120837;28;20054;-71
2022/03/18 04:20:39;;;;;;;0.20;0.20;;;5.50;99.90;;;;;;5103821;28;20019;-70
2022/03/18 04:23:05;;;;;;;0.00;0.00;;;5.50;99.90;;;;;;5120675;28;20024;-70
2022/03/18 04:25:31;;;;;;;0.00;0.00;;;5.50;99.90;;;;;;5104053;28;20233;-71
2022/03/18 04:27:58;;;;;;;0.00;0.00;;;5.50;99.90;;;;;;5120945;28;20040;-72
2022/03/18 04:30:24;;;;;;;0.00;0.00;;;5.50;99.90;;;;;;5103828;28;20023;-72
2022/03/18 04:32:50;;;;;;;0.00;0.00;;;5.50;99.90;;;;;;5122135;28;20027;-73
2022/03/18 04:35:16;;;;;;;0.00;0.00;;;5.50;99.90;;;;;;5124945;28;20306;-73
2022/03/18 04:37:42;;;;;;;0.00;0.00;;;5.50;99.90;;;;;;5125151;28;20031;-72
2022/03/18 04:40:10;;;;;;;0.00;0.00;;;5.50;99.90;;;;;;5106729;28;20188;-72
2022/03/18 04:42:36;;;;;;;0.00;0.00;;;5.50;99.90;;;;;;5125601;28;20016;-73
2022/03/18 04:45:03;;;;;;;0.00;0.00;;;5.50;99.90;;;;;;5124530;28;20337;-72
2022/03/18 04:47:30;;;;;;;0.00;0.00;;;5.50;99.90;;;;;;5125088;28;20083;-73
2022/03/18 04:49:56;;;;;;;0.00;0.00;;;5.50;99.90;;;;;;5119325;28;20023;-70
2022/03/18 04:52:22;;;;;;;0.00;0.00;;;5.50;99.90;;;;;;5124876;28;20061;-73
2022/03/18 04:54:48;;;;;;;0.00;0.00;;;5.50;99.90;;;;;;5123108;28;20027;-71
2022/03/18 04:57:16;;;;;;;0.00;0.00;;;5.50;99.90;;;;;;5123820;27;20034;-71
2022/03/18 04:59:42;;;;;;;0.00;0.00;;;5.40;99.90;;;;;;5112769;28;20085;-71
2022/03/18 05:02:12;;;;;;;0.00;0.00;;;5.50;99.90;;;;;;5124155;28;20027;-71
2022/03/18 05:04:38;;;;;;;0.00;0.00;;;5.40;99.90;;;;;;5124911;28;20011;-71
2022/03/18 05:07:08;;;;;;;0.00;0.00;;;5.50;99.90;;;;;;5123240;28;20023;-72
2022/03/18 05:09:33;;;;;;;0.15;0.15;;;5.40;99.90;;;;;;5109640;28;20111;-71
2022/03/18 05:11:59;;;;;;;0.00;0.00;;;5.50;99.90;;;;;;5100241;28;20338;-73
2022/03/18 05:14:25;;;;;;;0.00;0.00;;;5.50;99.90;;;;;;5100085;28;20634;-74
2022/03/18 05:16:52;;;;;;;0.55;0.55;;;5.40;99.90;;;;;;5097698;28;20618;-69
2022/03/18 05:19:17;;;;;;;0.00;0.00;;;5.50;99.90;;;;;;5100537;28;20174;-71
2022/03/18 05:21:43;;;;;;;0.00;0.00;;;5.40;99.90;;;;;;5103715;28;20052;-71
2022/03/18 05:24:10;;;;;;;0.00;0.00;;;5.40;99.90;;;;;;5102083;28;20020;-71
2022/03/18 05:26:37;;;;;;;0.00;0.00;;;5.40;99.90;;;;;;5085859;28;20304;-72
2022/03/18 05:29:03;;;;;;;0.00;0.00;;;5.40;99.90;;;;;;5111977;28;20027;-69
2022/03/18 05:31:31;;;;;;;0.00;0.00;;;5.40;99.90;;;;;;5125000;28;20295;-71
2022/03/18 05:33:57;;;;;;;0.10;0.10;;;5.40;99.90;;;;;;5123057;28;20020;-71
2022/03/18 05:36:23;;;;;;;0.00;0.00;;;5.40;99.90;;;;;;5105985;28;20094;-73
2022/03/18 05:38:49;;;;;;;0.00;0.00;;;5.50;99.90;;;;;;5123604;28;20043;-74
2022/03/18 05:41:15;;;;;;;0.00;0.00;;;5.40;99.90;;;;;;5106247;28;20015;-74
2022/03/18 05:43:40;;;;;;;0.00;0.00;;;5.50;99.90;;;;;;5123454;28;20019;-75
2022/03/18 05:46:07;;;;;;;0.00;0.00;;;5.50;99.90;;;;;;5105137;28;20172;-72
2022/03/18 05:48:33;;;;;;;0.00;0.00;;;5.50;99.90;;;;;;5122326;28;20256;-70
2022/03/18 05:51:00;;;;;;;0.00;0.00;;;5.50;99.90;;;;;;5105287;28;20240;-70
2022/03/18 05:53:26;;;;;;;0.05;0.05;;;5.50;99.90;;;;;;5105073;28;20035;-70
2022/03/18 05:58:37;;;;;;;0.00;0.00;;;5.60;99.90;;;;;;5122674;28;20034;-70
2022/03/18 06:01:03;;;;;;;0.00;0.00;;;5.60;99.90;;;;;;5122271;28;20024;-68
2022/03/18 06:03:29;;;;;;;0.00;0.00;;;5.70;99.90;;;;;;5123766;28;20288;-70
2022/03/18 06:05:54;;;;;;;0.00;0.00;;;5.60;99.90;;;;;;5105221;28;20060;-71
2022/03/18 06:13:49;;;;;;;0.00;0.00;;;5.80;99.90;;;;;;5122067;28;20187;-70
2022/03/18 06:16:15;;;;;;;0.00;0.00;;;5.80;99.90;;;;;;5122873;28;20019;-70
2022/03/18 06:18:41;;;;;;;0.00;0.00;;;5.80;99.90;;;;;;5123096;28;20030;-71
2022/03/18 06:21:08;;;;;;;0.00;0.00;;;5.90;99.90;;;;;;5104034;28;20054;-71
2022/03/18 06:23:34;;;;;;;0.00;0.00;;;5.90;99.90;;;;;;5105805;28;20015;-73
2022/03/18 06:26:01;;;;;;;0.10;0.00;;;6.00;99.90;;;;;;5123478;28;20016;-70
2022/03/18 06:28:27;;;;;;;0.00;0.00;;;6.00;99.90;;;;;;5122731;28;20086;-75
2022/03/18 06:30:53;;;;;;;0.00;0.00;;;6.10;99.90;;;;;;5105539;28;20024;-73
2022/03/18 06:33:18;;;;;;;0.00;0.00;;;6.10;99.90;;;;;;5121971;28;20313;-72
2022/03/18 06:35:44;;;;;;;0.00;0.00;;;6.20;99.90;;;;;;5100017;28;20037;-71
2022/03/18 06:38:10;;;;;;;0.00;0.00;;;6.20;99.90;;;;;;5081836;28;20047;-74
2022/03/18 06:40:36;;;;;;;0.00;0.00;;;6.20;99.90;;;;;;5101358;28;20051;-75
2022/03/18 06:43:02;;;;;;;0.00;0.00;;;6.30;99.90;;;;;;5100967;28;20317;-71
2022/03/18 06:45:27;;;;;;;0.00;0.00;;;6.30;99.90;;;;;;5084844;28;20033;-70
2022/03/18 06:47:53;;;;;;;0.00;0.00;;;6.30;99.90;;;;;;5095511;28;20080;-69
2022/03/18 06:50:22;;;;;;;0.00;0.00;;;6.40;99.90;;;;;;5092407;28;20024;-71
2022/03/18 06:52:48;;;;;;;0.00;0.00;;;6.40;99.90;;;;;;5087198;28;20019;-71
2022/03/18 06:55:14;;;;;;;0.00;0.00;;;6.40;99.90;;;;;;5090786;28;20061;-73
2022/03/18 06:57:40;;;;;;;0.10;0.10;;;6.50;99.90;;;;;;5098368;28;20032;-72
2022/03/18 07:00:06;;;;;;;0.00;0.00;;;6.50;99.90;;;;;;5098833;27;20334;-72
2022/03/18 07:02:32;;;;;;;0.00;0.00;;;6.60;99.90;;;;;;5097775;27;20023;-72
2022/03/18 07:04:57;;;;;;;0.00;0.00;;;6.60;99.90;;;;;;5100502;28;20035;-74
2022/03/18 07:07:23;;;;;;;0.00;0.00;;;6.60;99.90;;;;;;5122238;28;20024;-72
2022/03/18 07:09:49;;;;;;;0.13;0.13;;;6.70;99.90;;;;;;5121018;28;20023;-72
2022/03/18 07:12:15;;;;;;;0.10;0.10;;;6.70;99.90;;;;;;5110382;28;20186;-71
2022/03/18 07:14:40;;;;;;;0.30;0.22;;;6.70;99.90;;;;;;5105379;28;20023;-72
2022/03/18 07:19:51;;;;;;;0.00;0.00;;;6.90;99.90;;;;;;5122633;28;20101;-72
2022/03/18 07:22:17;;;;;;;0.00;0.00;;;6.90;99.90;;;;;;5122563;28;20022;-72
2022/03/18 07:24:42;;;;;;;0.00;0.00;;;6.90;99.90;;;;;;5121644;28;20019;-73
2022/03/18 07:27:09;;;;;;;0.00;0.00;;;7.00;99.90;;;;;;5121420;28;20020;-72
2022/03/18 07:29:35;;;;;;;0.00;0.00;;;7.00;99.90;;;;;;5115940;28;20020;-73
2022/03/18 07:32:01;;;;;;;0.00;0.00;;;7.10;99.90;;;;;;5104671;28;20057;-72
2022/03/18 07:34:26;;;;;;;0.00;0.00;;;7.10;99.90;;;;;;5122615;28;20068;-73
2022/03/18 07:36:52;;;;;;;0.00;0.00;;;7.20;99.90;;;;;;5122868;28;20016;-71
2022/03/18 07:39:17;;;;;;;0.00;0.00;;;7.20;99.90;;;;;;5104202;28;20024;-72
2022/03/18 07:41:43;;;;;;;0.13;0.13;;;7.30;99.90;;;;;;5122691;28;20083;-72
2022/03/18 07:44:09;;;;;;;0.00;0.00;;;7.30;99.90;;;;;;5122466;28;20031;-72
2022/03/18 07:46:35;;;;;;;0.00;0.00;;;7.40;99.90;;;;;;5123251;28;20065;-72
2022/03/18 07:49:01;;;;;;;0.00;0.00;;;7.40;99.90;;;;;;5121871;28;20304;-72
2022/03/18 07:51:27;;;;;;;0.00;0.00;;;7.50;99.90;;;;;;5120846;28;20338;-73
2022/03/18 07:53:53;;;;;;;0.10;0.10;;;7.50;99.90;;;;;;5113828;28;20024;-73
2022/03/18 07:56:18;;;;;;;0.00;0.00;;;7.60;99.90;;;;;;5115420;28;20325;-72
2022/03/18 07:58:44;;;;;;;0.00;0.00;;;7.70;99.90;;;;;;5121609;28;20044;-72
2022/03/18 08:01:12;;;;;;;0.00;0.00;;;7.70;99.90;;;;;;5122312;28;20011;-72
2022/03/18 08:03:38;;;;;;;0.00;0.00;;;7.70;99.90;;;;;;5117431;28;20076;-73
2022/03/18 08:06:04;;;;;;;0.00;0.00;;;7.80;99.90;;;;;;5097936;28;20039;-75
2022/03/18 08:08:31;;;;;;;0.00;0.00;;;7.80;99.90;;;;;;5103914;28;20031;-75
2022/03/18 08:11:16;;;;;;;0.00;0.00;;;7.90;99.90;;;;;;5104289;28;20019;-74
2022/03/18 08:13:45;;;;;;;0.00;0.00;;;7.90;99.90;;;;;;5120344;28;20018;-74
2022/03/18 08:16:12;;;;;;;0.20;0.20;;;7.90;99.90;;;;;;5105963;28;20306;-75
2022/03/18 08:18:38;;;;;;;0.00;0.00;;;8.00;99.90;;;;;;5121564;28;20364;-78
2022/03/18 08:21:04;;;;;;;0.00;0.00;;;8.00;99.90;;;;;;5121008;28;20031;-82
2022/03/18 08:23:32;;;;;;;0.00;0.00;;;8.10;99.90;;;;;;5104252;28;20314;-73
2022/03/18 08:25:58;;;;;;;0.00;0.00;;;8.10;99.90;;;;;;5102666;28;20091;-72
2022/03/18 08:28:23;;;;;;;0.00;0.00;;;8.20;99.90;;;;;;5101527;28;20024;-72
2022/03/18 08:30:49;;;;;;;0.00;0.00;;;8.30;99.90;;;;;;5120848;28;20026;-72
2022/03/18 08:33:15;;;;;;;0.00;0.00;;;8.40;99.90;;;;;;5102154;28;20011;-72
2022/03/18 08:35:41;;;;;;;0.00;0.00;;;8.40;99.90;;;;;;5120364;28;20026;-71
2022/03/18 08:38:10;;;;;;;0.00;0.00;;;8.50;99.90;;;;;;5120738;28;20318;-71
2022/03/18 08:40:37;;;;;;;0.00;0.00;;;8.50;99.90;;;;;;5102894;28;20302;-74
2022/03/18 08:43:05;;;;;;;0.00;0.00;;;8.50;99.90;;;;;;5102945;28;20036;-72
2022/03/18 08:45:32;;;;;;;;;;;8.60;99.90;;;;;;5106500;28;20095;-70
2022/03/18 08:47:58;;;;;;;0.00;0.00;;;8.60;99.90;;;;;;5092730;28;20234;-69
2022/03/18 08:50:24;;;;;;;0.00;0.00;;;8.70;99.90;;;;;;5079260;28;20291;-70
2022/03/18 08:52:52;;;;;;;0.00;0.00;;;8.70;99.90;;;;;;5099907;27;20024;-68
2022/03/18 08:55:18;;;;;;;0.00;0.00;;;8.80;99.90;;;;;;5091063;28;20318;-70
2022/03/18 08:57:44;;;;;;;0.00;0.00;;;8.80;99.90;;;;;;5101975;28;20086;-72
2022/03/18 09:00:14;;;;;;;0.00;0.00;;;8.90;99.90;;;;;;5102295;28;20024;-70
2022/03/18 09:02:40;;;;;;;0.00;0.00;;;8.90;99.90;;;;;;5100601;28;20072;-71
2022/03/18 09:05:07;;;;;;;0.32;0.32;;;8.90;99.90;;;;;;5100992;28;20054;-71
2022/03/18 09:07:34;;;;;;;0.00;0.00;;;9.00;99.90;;;;;;5101395;28;20427;-71
2022/03/18 09:10:00;;;;;;;0.00;0.00;;;9.10;99.90;;;;;;5088527;28;20031;-70
2022/03/18 09:12:26;;;;;;;0.75;0.75;;;9.10;99.90;;;;;;5103802;28;20078;-71
2022/03/18 09:14:52;;;;;;;0.90;0.22;;;9.30;99.90;;;;;;5091051;28;20028;-70
2022/03/18 09:17:18;;;;;;;0.00;0.00;;;9.20;99.90;;;;;;5090528;28;20279;-69
2022/03/18 09:19:44;;;;;;;0.20;0.10;;;9.30;99.90;;;;;;5080439;28;20028;-69
2022/03/18 09:22:10;;;;;;;0.10;0.10;;;9.30;99.90;;;;;;5101197;28;20027;-71
2022/03/18 09:24:37;;;;;;;0.00;0.00;;;9.30;99.90;;;;;;5103139;28;20016;-70
2022/03/18 09:27:03;;;;;;;0.00;0.00;;;9.30;99.90;;;;;;5090814;28;20107;-69
2022/03/18 09:29:30;;;;;;;0.10;0.10;;;9.40;99.90;;;;;;5099340;28;20030;-69
2022/03/18 09:31:56;;;;;;;0.00;0.00;;;9.50;99.90;;;;;;5084844;28;20122;-71
2022/03/18 09:34:24;;;;;;;0.00;0.00;;;9.60;99.90;;;;;;5104732;28;20023;-71
2022/03/18 09:36:55;;;;;;;0.00;0.00;;;9.60;99.90;;;;;;5105771;28;20019;-70
2022/03/18 09:39:22;;;;;;;0.00;0.00;;;9.70;99.90;;;;;;5084095;28;20019;-72
2022/03/18 09:41:48;;;;;;;0.00;0.00;;;9.80;99.90;;;;;;5098461;28;20054;-71
2022/03/18 09:44:14;;;;;;;0.00;0.00;;;9.90;99.90;;;;;;5094204;28;20020;-69
2022/03/18 09:46:41;;;;;;;0.00;0.00;;;10.00;99.90;;;;;;5105619;28;20023;-72
2022/03/18 09:49:11;;;;;;;0.00;0.00;;;10.00;99.90;;;;;;5081344;28;20020;-71
2022/03/18 09:51:40;;;;;;;0.00;0.00;;;10.10;99.90;;;;;;5103794;28;20027;-71
2022/03/18 09:54:07;;;;;;;0.00;0.00;;;10.20;99.90;;;;;;5092218;28;21154;-72
2022/03/18 09:56:41;;;;;;;0.00;0.00;;;10.30;99.90;;;;;;5100560;28;20055;-74
2022/03/18 09:59:07;;;;;;;0.00;0.00;;;10.30;99.90;;;;;;5100628;28;20201;-73
2022/03/18 10:01:33;;;;;;;0.08;0.08;;;10.40;99.90;;;;;;5102538;28;20032;-73
2022/03/18 10:04:03;;;;;;;0.15;0.15;;;10.50;99.90;;;;;;5103772;28;20019;-74
2022/03/18 10:06:29;;;;;;;0.00;0.00;;;10.60;99.90;;;;;;5100178;28;20312;-76
2022/03/18 10:08:57;;;;;;;0.00;0.00;;;10.60;99.90;;;;;;5097327;28;20020;-73
2022/03/18 10:11:30;;;;;;;0.45;0.15;;;10.60;99.90;;;;;;5100078;28;20066;-74
2022/03/18 10:14:02;;;;;;;0.00;0.00;;;10.70;99.90;;;;;;5103094;28;20306;-76
2022/03/18 10:16:38;;;;;;;0.00;0.00;;;10.70;99.90;;;;;;5102975;28;20024;-75
2022/03/18 10:19:21;;;;;;;0.00;0.00;;;10.80;99.90;;;;;;5097731;28;20169;-73
2022/03/18 10:21:59;;;;;;;0.00;0.00;;;10.90;99.90;;;;;;5090359;28;20119;-72
2022/03/18 10:24:34;;;;;;;0.00;0.00;;;11.00;99.90;;;;;;5090519;28;20024;-73
2022/03/18 10:27:15;;;;;;;0.00;0.00;;;11.00;99.90;;;;;;5100467;28;20038;-73
2022/03/18 10:29:50;;;;;;;0.00;0.00;;;11.20;99.90;;;;;;5095742;28;20032;-73
2022/03/18 10:32:17;;;;;;;0.00;0.00;;;11.20;99.90;;;;;;5097716;28;20363;-74
2022/03/18 10:37:50;;;;;;;0.00;0.00;;;11.30;99.90;;;;;;5099892;28;20030;-72
2022/03/18 10:40:19;;;;;;;0.08;0.00;;;11.40;99.90;;;;;;5097828;28;20028;-74
2022/03/18 10:43:02;;;;;;;0.10;0.00;;;11.40;99.90;;;;;;5097202;28;20067;-72
2022/03/18 10:45:28;;;;;;;0.05;0.00;;;11.40;99.90;;;;;;5096789;28;20132;-73
2022/03/18 10:47:54;;;;;;;0.00;0.00;;;11.40;99.90;;;;;;5097602;28;20024;-74
2022/03/18 10:50:40;;;;;;;0.00;0.00;;;11.50;99.90;;;;;;5095963;28;20087;-76
2022/03/18 10:53:07;;;;;;;0.13;0.13;;;11.60;99.90;;;;;;5090022;28;20031;-76
2022/03/18 10:55:44;;;;;;;0.00;0.00;;;11.80;97.70;;;;;;5088791;28;20054;-72
2022/03/18 10:58:11;;;;;;;0.00;0.00;;;11.80;99.60;;;;;;5096770;28;20038;-71
2022/03/18 11:00:43;;;;;;;0.00;0.00;;;11.80;98.80;;;;;;5079023;28;20048;-71
2022/03/18 11:03:09;;;;;;;0.00;0.00;;;11.90;98.70;;;;;;5101549;28;20019;-72
2022/03/18 11:05:38;;;;;;;0.00;0.00;;;12.30;99.90;;;;;;5085224;28;20016;-72
2022/03/18 11:08:11;;;;;;;0.00;0.00;;;12.50;97.70;;;;;;5090408;28;20031;-71
2022/03/18 11:13:28;;;;;;;0.00;0.00;;;13.00;96.70;;;;;;5100144;28;20022;-70
2022/03/18 11:15:55;;;;;;;0.00;0.00;;;13.30;97.90;;;;;;5103034;28;20045;-71
2022/03/18 11:18:21;;;;;;;0.00;0.00;;;13.40;97.30;;;;;;5087330;28;20035;-70
2022/03/18 11:20:50;;;;;;;0.00;0.00;;;13.40;94.50;;;;;;5098444;28;20065;-71
2022/03/18 11:23:18;;;;;;;0.00;0.00;;;13.50;97.40;;;;;;5101056;28;20059;-71
2022/03/18 11:25:51;;;;;;;0.00;0.00;;;13.50;96.50;;;;;;5098467;28;20028;-70
2022/03/18 11:28:19;;;;;;;0.00;0.00;;;13.60;98.40;;;;;;5099632;28;20100;-70
2022/03/18 11:30:49;;;;;;;0.00;0.00;;;13.60;94.70;;;;;;5097716;28;20007;-70
2022/03/18 11:33:15;;;;;;;0.43;0.10;;;13.50;93.20;;;;;;5099843;28;20046;-70
2022/03/18 11:35:50;;;;;;;0.10;0.00;;;13.80;96.80;;;;;;5079331;28;20024;-70
2022/03/18 11:38:17;;;;;;;0.00;0.00;;;13.80;94.10;;;;;;5097934;28;20032;-70
2022/03/18 11:41:00;;;;;;;0.00;0.00;;;13.80;93.80;;;;;;5075715;28;20024;-71
2022/03/18 11:43:32;;;;;;;0.10;0.00;;;13.70;95.30;;;;;;5100469;28;20314;-71
2022/03/18 11:46:14;;;;;;;0.00;0.00;;;13.70;94.40;;;;;;5104126;28;20196;-71
2022/03/18 11:49:05;;;;;;;0.00;0.00;;;13.50;91.90;;;;;;5121897;28;20016;-70
2022/03/18 11:51:36;;;;;;;0.00;0.00;;;13.30;91.90;;;;;;5104820;28;20027;-72
2022/03/18 11:54:25;;;;;;;0.00;0.00;;;13.40;94.10;;;;;;5123508;28;21233;-72
2022/03/18 11:56:57;;;;;;;0.00;0.00;;;13.50;91.90;;;;;;5102754;28;20066;-72
2022/03/18 11:59:28;;;;;;;0.00;0.00;;;13.60;94.70;;;;;;5121973;28;20055;-72
2022/03/18 12:02:00;;;;;;;0.00;0.00;;;13.70;95.10;;;;;;5121801;28;20020;-72
2022/03/18 12:04:48;;;;;;;0.00;0.00;;;13.70;93.60;;;;;;5103739;28;20052;-72
2022/03/18 12:07:29;;;;;;;0.00;0.00;;;13.90;95.90;;;;;;5102623;28;20061;-71
2022/03/18 12:10:03;;;;;;;0.00;0.00;;;14.00;93.90;;;;;;5103643;28;20038;-72
2022/03/18 12:12:41;;;;;;;0.00;0.00;;;14.10;92.80;;;;;;5122161;28;20042;-72
2022/03/18 12:15:17;;;;;;;0.05;0.00;;;14.20;93.50;;;;;;5123284;28;20078;-72
2022/03/18 12:17:45;;;;;;;0.00;0.00;;;14.10;91.00;;;;;;5123063;28;20077;-71
2022/03/18 12:20:25;;;;;;;0.00;0.00;;;13.90;91.40;;;;;;5106756;28;20015;-71
2022/03/18 12:22:52;;;;;;;0.00;0.00;;;13.70;92.30;;;;;;5120822;28;20020;-73
2022/03/18 12:25:21;;;;;;;0.00;0.00;;;13.50;94.00;;;;;;5121771;28;20030;-72
2022/03/18 12:27:47;;;;;;;0.00;0.00;;;13.40;94.20;;;;;;5104386;28;20294;-72
2022/03/18 12:30:15;;;;;;;0.00;0.00;;;13.40;94.10;;;;;;5104385;28;20026;-72
2022/03/18 12:32:48;;;;;;;0.00;0.00;;;13.40;91.60;;;;;;5104535;28;20061;-72
2022/03/18 12:35:18;;;;;;;0.00;0.00;;;13.40;92.60;;;;;;5122278;28;20026;-72
2022/03/18 12:37:48;;;;;;;0.00;0.00;;;13.30;91.50;;;;;;5104112;28;20028;-72
2022/03/18 12:40:19;;;;;;;0.00;0.00;;;13.20;90.90;;;;;;5104490;28;20027;-68
2022/03/18 12:42:59;;;;;;;0.00;0.00;;;13.20;88.40;;;;;;5104298;28;20211;-74
2022/03/18 12:45:29;;;;;;;0.17;0.17;;;13.30;90.80;;;;;;5120253;28;20023;-73
2022/03/18 12:47:56;;;;;;;0.00;0.00;;;13.20;89.30;;;;;;5120856;28;20023;-73
2022/03/18 12:50:31;;;;;;;0.08;0.00;;;13.20;92.10;;;;;;5121179;27;20016;-75
2022/03/18 12:52:57;;;;;;;0.00;0.00;;;13.20;91.00;;;;;;5121652;28;20016;-75
2022/03/18 12:55:24;;;;;;;0.43;0.38;;;13.30;93.30;;;;;;5102742;28;20062;-72
2022/03/18 12:57:51;;;;;;;0.00;0.00;;;13.20;90.00;;;;;;5122141;28;20042;-74
2022/03/18 13:00:18;;;;;;;0.00;0.00;;;13.10;89.90;;;;;;5103363;28;20333;-71
2022/03/18 13:02:44;;;;;;;0.00;0.00;;;13.10;90.20;;;;;;5103248;28;20016;-73
2022/03/18 13:05:15;;;;;;;0.00;0.00;;;13.00;88.10;;;;;;5104336;28;20015;-72
2022/03/18 13:07:42;;;;;;;0.00;0.00;;;12.90;91.30;;;;;;5104197;28;20204;-74
2022/03/18 13:10:09;;;;;;;0.10;0.08;;;12.80;91.00;;;;;;5123166;28;20024;-75
2022/03/18 13:12:36;;;;;;;0.00;0.00;;;12.80;86.60;;;;;;5121402;28;20065;-72
2022/03/18 13:15:17;;;;;;;0.00;0.00;;;12.70;90.30;;;;;;5103697;28;20034;-75
2022/03/18 13:17:45;;;;;;;0.00;0.00;;;12.60;90.40;;;;;;5121358;28;20028;-72
2022/03/18 13:20:28;;;;;;;0.00;0.00;;;12.60;91.00;;;;;;5104804;28;20028;-73